sensor_id;sensor_type;location;lat;lon;timestamp;P1;durP1;ratioP1;P2;durP2;ratioP2
12076;SDS011;12420;42.676;23.262;2022-07-21T00:01:23;4.60;;;2.70;;
12076;SDS011;12420;42.676;23.262;2022-07-21T00:03:50;3.50;;;2.73;;
12076;SDS011;12420;42.676;23.262;2022-07-21T00:06:16;8.33;;;3.47;;
12076;SDS011;12420;42.676;23.262;2022-07-21T00:08:43;7.87;;;3.17;;
12076;SDS011;12420;42.676;23.262;2022-07-21T00:11:11;3.33;;;2.60;;
12076;SDS011;12420;42.676;23.262;2022-07-21T00:13:38;2.73;;;2.63;;
12076;SDS011;12420;42.676;23.262;2022-07-21T00:16:07;3.03;;;2.73;;
12076;SDS011;12420;42.676;23.262;2022-07-21T00:18:34;5.30;;;3.00;;
12076;SDS011;12420;42.676;23.262;2022-07-21T00:21:01;5.57;;;3.20;;
12076;SDS011;12420;42.676;23.262;2022-07-21T00:23:29;2.97;;;2.70;;
12076;SDS011;12420;42.676;23.262;2022-07-21T00:25:55;6.90;;;2.60;;
12076;SDS011;12420;42.676;23.262;2022-07-21T00:28:22;5.57;;;2.80;;
12076;SDS011;12420;42.676;23.262;2022-07-21T00:30:49;4.83;;;2.97;;
12076;SDS011;12420;42.676;23.262;2022-07-21T00:33:17;2.90;;;2.70;;
12076;SDS011;12420;42.676;23.262;2022-07-21T00:35:44;3.00;;;2.77;;
12076;SDS011;12420;42.676;23.262;2022-07-21T00:38:11;4.63;;;2.70;;
12076;SDS011;12420;42.676;23.262;2022-07-21T00:40:38;5.20;;;2.80;;
12076;SDS011;12420;42.676;23.262;2022-07-21T00:43:05;4.60;;;2.77;;
12076;SDS011;12420;42.676;23.262;2022-07-21T00:45:32;2.80;;;2.60;;
12076;SDS011;12420;42.676;23.262;2022-07-21T00:47:59;5.20;;;3.13;;
12076;SDS011;12420;42.676;23.262;2022-07-21T00:50:27;4.60;;;2.77;;
12076;SDS011;12420;42.676;23.262;2022-07-21T00:52:56;2.83;;;2.63;;
12076;SDS011;12420;42.676;23.262;2022-07-21T00:55:22;2.93;;;2.70;;
12076;SDS011;12420;42.676;23.262;2022-07-21T00:57:49;5.73;;;2.73;;
12076;SDS011;12420;42.676;23.262;2022-07-21T01:00:20;4.97;;;2.80;;
12076;SDS011;12420;42.676;23.262;2022-07-21T01:02:49;3.60;;;2.70;;
12076;SDS011;12420;42.676;23.262;2022-07-21T01:05:16;5.87;;;2.97;;
12076;SDS011;12420;42.676;23.262;2022-07-21T01:07:46;5.80;;;2.80;;
12076;SDS011;12420;42.676;23.262;2022-07-21T01:10:16;4.73;;;2.67;;
12076;SDS011;12420;42.676;23.262;2022-07-21T01:12:43;3.90;;;2.90;;
12076;SDS011;12420;42.676;23.262;2022-07-21T01:15:11;3.47;;;2.43;;
12076;SDS011;12420;42.676;23.262;2022-07-21T01:17:40;3.60;;;2.70;;
12076;SDS011;12420;42.676;23.262;2022-07-21T01:20:08;9.90;;;2.87;;
12076;SDS011;12420;42.676;23.262;2022-07-21T01:22:39;6.07;;;2.80;;
12076;SDS011;12420;42.676;23.262;2022-07-21T01:25:07;3.13;;;2.87;;
12076;SDS011;12420;42.676;23.262;2022-07-21T01:27:35;5.73;;;2.77;;
12076;SDS011;12420;42.676;23.262;2022-07-21T01:30:02;5.10;;;2.90;;
12076;SDS011;12420;42.676;23.262;2022-07-21T01:32:33;6.77;;;2.90;;
12076;SDS011;12420;42.676;23.262;2022-07-21T01:35:00;5.73;;;3.00;;
12076;SDS011;12420;42.676;23.262;2022-07-21T01:37:27;3.93;;;2.50;;
12076;SDS011;12420;42.676;23.262;2022-07-21T01:39:58;7.97;;;2.77;;
12076;SDS011;12420;42.676;23.262;2022-07-21T01:42:42;4.40;;;2.83;;
12076;SDS011;12420;42.676;23.262;2022-07-21T01:45:09;3.83;;;2.80;;
12076;SDS011;12420;42.676;23.262;2022-07-21T01:47:36;3.80;;;2.87;;
12076;SDS011;12420;42.676;23.262;2022-07-21T01:50:04;3.83;;;2.80;;
12076;SDS011;12420;42.676;23.262;2022-07-21T01:52:31;4.83;;;2.80;;
12076;SDS011;12420;42.676;23.262;2022-07-21T01:54:59;5.43;;;3.00;;
12076;SDS011;12420;42.676;23.262;2022-07-21T01:57:26;4.17;;;2.90;;
12076;SDS011;12420;42.676;23.262;2022-07-21T01:59:53;7.03;;;3.27;;
12076;SDS011;12420;42.676;23.262;2022-07-21T02:02:22;5.37;;;3.07;;
12076;SDS011;12420;42.676;23.262;2022-07-21T02:04:48;4.30;;;3.20;;
12076;SDS011;12420;42.676;23.262;2022-07-21T02:07:16;4.03;;;3.20;;
12076;SDS011;12420;42.676;23.262;2022-07-21T02:09:43;4.40;;;3.40;;
12076;SDS011;12420;42.676;23.262;2022-07-21T02:12:11;5.23;;;3.03;;
12076;SDS011;12420;42.676;23.262;2022-07-21T02:14:38;3.87;;;3.50;;
12076;SDS011;12420;42.676;23.262;2022-07-21T02:17:05;5.07;;;3.47;;
12076;SDS011;12420;42.676;23.262;2022-07-21T02:19:32;5.20;;;3.20;;
12076;SDS011;12420;42.676;23.262;2022-07-21T02:21:59;3.80;;;3.03;;
12076;SDS011;12420;42.676;23.262;2022-07-21T02:24:26;3.83;;;3.53;;
12076;SDS011;12420;42.676;23.262;2022-07-21T02:26:52;3.37;;;3.07;;
12076;SDS011;12420;42.676;23.262;2022-07-21T02:29:21;4.63;;;3.90;;
12076;SDS011;12420;42.676;23.262;2022-07-21T02:31:47;5.73;;;3.10;;
12076;SDS011;12420;42.676;23.262;2022-07-21T02:34:14;6.03;;;3.40;;
12076;SDS011;12420;42.676;23.262;2022-07-21T02:36:41;6.23;;;3.60;;
12076;SDS011;12420;42.676;23.262;2022-07-21T02:39:08;8.10;;;3.53;;
12076;SDS011;12420;42.676;23.262;2022-07-21T02:41:35;3.33;;;3.00;;
12076;SDS011;12420;42.676;23.262;2022-07-21T02:44:01;4.83;;;3.40;;
12076;SDS011;12420;42.676;23.262;2022-07-21T02:46:30;3.73;;;3.43;;
12076;SDS011;12420;42.676;23.262;2022-07-21T02:48:56;8.93;;;3.50;;
12076;SDS011;12420;42.676;23.262;2022-07-21T02:51:23;3.87;;;3.40;;
12076;SDS011;12420;42.676;23.262;2022-07-21T02:53:50;5.17;;;3.50;;
12076;SDS011;12420;42.676;23.262;2022-07-21T02:56:17;5.43;;;4.03;;
12076;SDS011;12420;42.676;23.262;2022-07-21T02:58:43;5.50;;;4.20;;
12076;SDS011;12420;42.676;23.262;2022-07-21T03:01:11;4.80;;;3.83;;
12076;SDS011;12420;42.676;23.262;2022-07-21T03:03:39;8.83;;;3.80;;
12076;SDS011;12420;42.676;23.262;2022-07-21T03:06:06;4.60;;;3.37;;
12076;SDS011;12420;42.676;23.262;2022-07-21T03:08:33;10.37;;;4.10;;
12076;SDS011;12420;42.676;23.262;2022-07-21T03:11:00;5.13;;;3.50;;
12076;SDS011;12420;42.676;23.262;2022-07-21T03:13:28;6.03;;;4.00;;
12076;SDS011;12420;42.676;23.262;2022-07-21T03:15:55;4.70;;;3.70;;
12076;SDS011;12420;42.676;23.262;2022-07-21T03:18:22;9.67;;;4.50;;
12076;SDS011;12420;42.676;23.262;2022-07-21T03:20:50;7.50;;;4.00;;
12076;SDS011;12420;42.676;23.262;2022-07-21T03:23:17;6.20;;;3.77;;
12076;SDS011;12420;42.676;23.262;2022-07-21T03:25:44;4.37;;;3.40;;
12076;SDS011;12420;42.676;23.262;2022-07-21T03:28:11;17.40;;;3.90;;
12076;SDS011;12420;42.676;23.262;2022-07-21T03:30:38;5.83;;;4.00;;
12076;SDS011;12420;42.676;23.262;2022-07-21T03:33:05;8.20;;;4.27;;
12076;SDS011;12420;42.676;23.262;2022-07-21T03:35:32;4.77;;;3.60;;
12076;SDS011;12420;42.676;23.262;2022-07-21T03:38:02;8.80;;;4.20;;
12076;SDS011;12420;42.676;23.262;2022-07-21T03:40:30;7.43;;;4.50;;
12076;SDS011;12420;42.676;23.262;2022-07-21T03:42:59;7.70;;;4.10;;
12076;SDS011;12420;42.676;23.262;2022-07-21T03:45:27;6.20;;;3.80;;
12076;SDS011;12420;42.676;23.262;2022-07-21T03:47:55;8.73;;;4.27;;
12076;SDS011;12420;42.676;23.262;2022-07-21T03:50:22;49.00;;;5.73;;
12076;SDS011;12420;42.676;23.262;2022-07-21T03:52:49;12.67;;;3.83;;
12076;SDS011;12420;42.676;23.262;2022-07-21T03:55:17;21.03;;;5.27;;
12076;SDS011;12420;42.676;23.262;2022-07-21T03:57:45;12.23;;;4.30;;
12076;SDS011;12420;42.676;23.262;2022-07-21T04:00:14;9.80;;;4.53;;
12076;SDS011;12420;42.676;23.262;2022-07-21T04:02:43;6.87;;;4.47;;
12076;SDS011;12420;42.676;23.262;2022-07-21T04:05:10;9.17;;;4.20;;
12076;SDS011;12420;42.676;23.262;2022-07-21T04:07:38;8.70;;;4.00;;
12076;SDS011;12420;42.676;23.262;2022-07-21T04:10:06;9.47;;;4.20;;
12076;SDS011;12420;42.676;23.262;2022-07-21T04:12:36;11.77;;;4.53;;
12076;SDS011;12420;42.676;23.262;2022-07-21T04:15:04;6.73;;;3.90;;
12076;SDS011;12420;42.676;23.262;2022-07-21T04:17:32;4.70;;;3.87;;
12076;SDS011;12420;42.676;23.262;2022-07-21T04:19:59;4.53;;;3.60;;
12076;SDS011;12420;42.676;23.262;2022-07-21T04:22:27;4.90;;;3.63;;
12076;SDS011;12420;42.676;23.262;2022-07-21T04:24:54;13.20;;;3.90;;
12076;SDS011;12420;42.676;23.262;2022-07-21T04:27:22;18.13;;;3.97;;
12076;SDS011;12420;42.676;23.262;2022-07-21T04:29:50;9.47;;;4.13;;
12076;SDS011;12420;42.676;23.262;2022-07-21T04:32:17;11.97;;;3.80;;
12076;SDS011;12420;42.676;23.262;2022-07-21T04:34:44;4.10;;;3.70;;
12076;SDS011;12420;42.676;23.262;2022-07-21T04:37:11;9.43;;;4.10;;
12076;SDS011;12420;42.676;23.262;2022-07-21T04:39:37;5.97;;;3.93;;
12076;SDS011;12420;42.676;23.262;2022-07-21T04:42:04;12.33;;;4.43;;
12076;SDS011;12420;42.676;23.262;2022-07-21T04:44:32;7.90;;;3.97;;
12076;SDS011;12420;42.676;23.262;2022-07-21T04:47:00;13.83;;;4.07;;
12076;SDS011;12420;42.676;23.262;2022-07-21T04:49:27;4.73;;;3.50;;
12076;SDS011;12420;42.676;23.262;2022-07-21T04:51:54;6.53;;;3.57;;
12076;SDS011;12420;42.676;23.262;2022-07-21T04:54:20;5.87;;;4.03;;
12076;SDS011;12420;42.676;23.262;2022-07-21T04:56:47;8.63;;;4.17;;
12076;SDS011;12420;42.676;23.262;2022-07-21T04:59:14;7.23;;;3.67;;
12076;SDS011;12420;42.676;23.262;2022-07-21T05:01:41;12.97;;;3.70;;
12076;SDS011;12420;42.676;23.262;2022-07-21T05:04:09;6.87;;;3.80;;
12076;SDS011;12420;42.676;23.262;2022-07-21T05:06:36;10.82;;;3.78;;
12076;SDS011;12420;42.676;23.262;2022-07-21T05:09:03;11.70;;;3.57;;
12076;SDS011;12420;42.676;23.262;2022-07-21T05:11:30;7.27;;;3.80;;
12076;SDS011;12420;42.676;23.262;2022-07-21T05:13:57;7.80;;;3.57;;
12076;SDS011;12420;42.676;23.262;2022-07-21T05:16:23;5.33;;;3.43;;
12076;SDS011;12420;42.676;23.262;2022-07-21T05:18:50;6.13;;;3.80;;
12076;SDS011;12420;42.676;23.262;2022-07-21T05:21:19;6.38;;;3.78;;
12076;SDS011;12420;42.676;23.262;2022-07-21T05:23:45;8.83;;;3.90;;
12076;SDS011;12420;42.676;23.262;2022-07-21T05:26:12;7.67;;;3.63;;
12076;SDS011;12420;42.676;23.262;2022-07-21T05:28:40;13.27;;;3.87;;
12076;SDS011;12420;42.676;23.262;2022-07-21T05:31:07;5.10;;;3.77;;
12076;SDS011;12420;42.676;23.262;2022-07-21T05:33:34;5.65;;;3.90;;
12076;SDS011;12420;42.676;23.262;2022-07-21T05:36:01;5.82;;;4.03;;
12076;SDS011;12420;42.676;23.262;2022-07-21T05:38:30;7.13;;;4.00;;
12076;SDS011;12420;42.676;23.262;2022-07-21T05:40:57;8.35;;;4.05;;
12076;SDS011;12420;42.676;23.262;2022-07-21T05:43:28;7.28;;;4.20;;
12076;SDS011;12420;42.676;23.262;2022-07-21T05:45:55;10.77;;;4.10;;
12076;SDS011;12420;42.676;23.262;2022-07-21T05:48:22;12.50;;;4.53;;
12076;SDS011;12420;42.676;23.262;2022-07-21T05:50:48;9.07;;;4.00;;
12076;SDS011;12420;42.676;23.262;2022-07-21T05:53:15;14.90;;;4.23;;
12076;SDS011;12420;42.676;23.262;2022-07-21T05:55:44;8.55;;;3.80;;
12076;SDS011;12420;42.676;23.262;2022-07-21T05:58:10;9.57;;;4.17;;
12076;SDS011;12420;42.676;23.262;2022-07-21T06:00:40;18.30;;;4.93;;
12076;SDS011;12420;42.676;23.262;2022-07-21T06:03:08;14.02;;;4.25;;
12076;SDS011;12420;42.676;23.262;2022-07-21T06:05:35;9.70;;;3.97;;
12076;SDS011;12420;42.676;23.262;2022-07-21T06:08:02;8.13;;;3.85;;
12076;SDS011;12420;42.676;23.262;2022-07-21T06:10:30;7.03;;;3.45;;
12076;SDS011;12420;42.676;23.262;2022-07-21T06:12:58;7.75;;;4.00;;
12076;SDS011;12420;42.676;23.262;2022-07-21T06:15:25;7.78;;;3.40;;
12076;SDS011;12420;42.676;23.262;2022-07-21T06:17:52;8.88;;;3.97;;
12076;SDS011;12420;42.676;23.262;2022-07-21T06:20:18;13.95;;;3.97;;
12076;SDS011;12420;42.676;23.262;2022-07-21T06:22:45;5.72;;;3.53;;
12076;SDS011;12420;42.676;23.262;2022-07-21T06:25:13;8.10;;;4.47;;
12076;SDS011;12420;42.676;23.262;2022-07-21T06:27:40;6.80;;;4.22;;
12076;SDS011;12420;42.676;23.262;2022-07-21T06:30:09;10.35;;;3.80;;
12076;SDS011;12420;42.676;23.262;2022-07-21T06:32:37;11.63;;;3.80;;
12076;SDS011;12420;42.676;23.262;2022-07-21T06:35:05;14.00;;;3.83;;
12076;SDS011;12420;42.676;23.262;2022-07-21T06:37:33;8.23;;;3.65;;
12076;SDS011;12420;42.676;23.262;2022-07-21T06:39:59;11.27;;;4.13;;
12076;SDS011;12420;42.676;23.262;2022-07-21T06:42:26;10.63;;;4.07;;
12076;SDS011;12420;42.676;23.262;2022-07-21T06:44:53;7.55;;;3.70;;
12076;SDS011;12420;42.676;23.262;2022-07-21T06:47:21;3.90;;;3.50;;
12076;SDS011;12420;42.676;23.262;2022-07-21T06:49:48;5.03;;;3.47;;
12076;SDS011;12420;42.676;23.262;2022-07-21T06:52:15;9.38;;;3.92;;
12076;SDS011;12420;42.676;23.262;2022-07-21T06:54:41;10.13;;;3.97;;
12076;SDS011;12420;42.676;23.262;2022-07-21T06:57:08;10.25;;;3.67;;
12076;SDS011;12420;42.676;23.262;2022-07-21T06:59:35;7.88;;;4.00;;
12076;SDS011;12420;42.676;23.262;2022-07-21T07:02:02;11.40;;;3.83;;
12076;SDS011;12420;42.676;23.262;2022-07-21T07:04:33;6.28;;;3.72;;
12076;SDS011;12420;42.676;23.262;2022-07-21T07:07:00;9.90;;;3.90;;
12076;SDS011;12420;42.676;23.262;2022-07-21T07:09:26;10.25;;;4.05;;
12076;SDS011;12420;42.676;23.262;2022-07-21T07:11:53;5.68;;;3.90;;
12076;SDS011;12420;42.676;23.262;2022-07-21T07:14:28;10.00;;;3.67;;
12076;SDS011;12420;42.676;23.262;2022-07-21T07:16:55;6.88;;;3.70;;
12076;SDS011;12420;42.676;23.262;2022-07-21T07:19:22;5.65;;;3.55;;
12076;SDS011;12420;42.676;23.262;2022-07-21T07:21:50;7.63;;;3.80;;
12076;SDS011;12420;42.676;23.262;2022-07-21T07:24:17;8.45;;;3.67;;
12076;SDS011;12420;42.676;23.262;2022-07-21T07:26:43;8.25;;;3.67;;
12076;SDS011;12420;42.676;23.262;2022-07-21T07:29:10;9.85;;;3.83;;
12076;SDS011;12420;42.676;23.262;2022-07-21T07:31:37;6.47;;;3.60;;
12076;SDS011;12420;42.676;23.262;2022-07-21T07:34:04;5.30;;;3.53;;
12076;SDS011;12420;42.676;23.262;2022-07-21T07:36:32;5.07;;;3.45;;
12076;SDS011;12420;42.676;23.262;2022-07-21T07:39:01;4.15;;;3.30;;
12076;SDS011;12420;42.676;23.262;2022-07-21T07:41:28;6.80;;;3.50;;
12076;SDS011;12420;42.676;23.262;2022-07-21T07:43:56;7.10;;;3.30;;
12076;SDS011;12420;42.676;23.262;2022-07-21T07:46:24;5.50;;;2.92;;
12076;SDS011;12420;42.676;23.262;2022-07-21T07:48:51;3.50;;;3.20;;
12076;SDS011;12420;42.676;23.262;2022-07-21T07:51:18;6.45;;;2.92;;
12076;SDS011;12420;42.676;23.262;2022-07-21T07:53:46;3.85;;;2.75;;
12076;SDS011;12420;42.676;23.262;2022-07-21T07:56:14;7.35;;;3.13;;
12076;SDS011;12420;42.676;23.262;2022-07-21T07:58:40;3.78;;;2.85;;
12076;SDS011;12420;42.676;23.262;2022-07-21T08:01:07;5.22;;;2.85;;
12076;SDS011;12420;42.676;23.262;2022-07-21T08:03:34;4.88;;;2.90;;
12076;SDS011;12420;42.676;23.262;2022-07-21T08:06:02;4.68;;;3.05;;
12076;SDS011;12420;42.676;23.262;2022-07-21T08:08:31;8.48;;;3.20;;
12076;SDS011;12420;42.676;23.262;2022-07-21T08:10:58;4.03;;;2.67;;
12076;SDS011;12420;42.676;23.262;2022-07-21T08:13:27;3.53;;;2.60;;
12076;SDS011;12420;42.676;23.262;2022-07-21T08:15:53;5.25;;;3.08;;
12076;SDS011;12420;42.676;23.262;2022-07-21T08:18:21;6.80;;;2.58;;
12076;SDS011;12420;42.676;23.262;2022-07-21T08:20:48;8.88;;;2.65;;
12076;SDS011;12420;42.676;23.262;2022-07-21T08:23:15;2.40;;;2.30;;
12076;SDS011;12420;42.676;23.262;2022-07-21T08:25:43;10.40;;;2.95;;
12076;SDS011;12420;42.676;23.262;2022-07-21T08:28:10;4.15;;;2.60;;
12076;SDS011;12420;42.676;23.262;2022-07-21T08:30:38;2.75;;;2.55;;
12076;SDS011;12420;42.676;23.262;2022-07-21T08:33:05;3.85;;;2.65;;
12076;SDS011;12420;42.676;23.262;2022-07-21T08:35:32;3.67;;;2.70;;
12076;SDS011;12420;42.676;23.262;2022-07-21T08:38:02;4.25;;;2.70;;
12076;SDS011;12420;42.676;23.262;2022-07-21T08:40:33;2.83;;;2.67;;
12076;SDS011;12420;42.676;23.262;2022-07-21T08:43:02;8.30;;;2.90;;
12076;SDS011;12420;42.676;23.262;2022-07-21T08:45:30;4.55;;;2.60;;
12076;SDS011;12420;42.676;23.262;2022-07-21T08:47:58;3.33;;;2.50;;
12076;SDS011;12420;42.676;23.262;2022-07-21T08:50:26;3.42;;;3.13;;
12076;SDS011;12420;42.676;23.262;2022-07-21T08:52:56;3.22;;;2.60;;
12076;SDS011;12420;42.676;23.262;2022-07-21T08:55:23;7.15;;;2.88;;
12076;SDS011;12420;42.676;23.262;2022-07-21T08:57:50;5.35;;;2.70;;
12076;SDS011;12420;42.676;23.262;2022-07-21T09:00:17;2.50;;;2.40;;
12076;SDS011;12420;42.676;23.262;2022-07-21T09:02:44;3.00;;;2.80;;
12076;SDS011;12420;42.676;23.262;2022-07-21T09:05:12;3.20;;;2.88;;
12076;SDS011;12420;42.676;23.262;2022-07-21T09:07:48;2.75;;;2.60;;
12076;SDS011;12420;42.676;23.262;2022-07-21T09:10:20;3.00;;;2.67;;
12076;SDS011;12420;42.676;23.262;2022-07-21T09:12:49;3.80;;;2.90;;
12076;SDS011;12420;42.676;23.262;2022-07-21T09:15:18;2.85;;;2.65;;
12076;SDS011;12420;42.676;23.262;2022-07-21T09:17:47;7.63;;;2.92;;
12076;SDS011;12420;42.676;23.262;2022-07-21T09:20:32;3.75;;;2.63;;
12076;SDS011;12420;42.676;23.262;2022-07-21T09:23:07;4.15;;;2.97;;
12076;SDS011;12420;42.676;23.262;2022-07-21T09:25:36;2.92;;;2.72;;
12076;SDS011;12420;42.676;23.262;2022-07-21T09:28:12;5.82;;;3.00;;
12076;SDS011;12420;42.676;23.262;2022-07-21T09:30:47;8.02;;;3.08;;
12076;SDS011;12420;42.676;23.262;2022-07-21T09:33:26;4.43;;;3.05;;
12076;SDS011;12420;42.676;23.262;2022-07-21T09:36:02;4.03;;;3.10;;
12076;SDS011;12420;42.676;23.262;2022-07-21T09:38:32;6.40;;;2.80;;
12076;SDS011;12420;42.676;23.262;2022-07-21T09:41:04;5.40;;;2.67;;
12076;SDS011;12420;42.676;23.262;2022-07-21T09:43:33;3.47;;;2.92;;
12076;SDS011;12420;42.676;23.262;2022-07-21T09:46:07;6.00;;;3.20;;
12076;SDS011;12420;42.676;23.262;2022-07-21T09:48:37;8.57;;;3.17;;
12076;SDS011;12420;42.676;23.262;2022-07-21T09:51:23;3.38;;;2.70;;
12076;SDS011;12420;42.676;23.262;2022-07-21T09:53:55;6.65;;;2.80;;
12076;SDS011;12420;42.676;23.262;2022-07-21T09:56:25;3.78;;;3.35;;
12076;SDS011;12420;42.676;23.262;2022-07-21T09:58:54;6.53;;;3.05;;
12076;SDS011;12420;42.676;23.262;2022-07-21T10:01:23;4.50;;;2.88;;
12076;SDS011;12420;42.676;23.262;2022-07-21T10:03:51;3.05;;;2.92;;
12076;SDS011;12420;42.676;23.262;2022-07-21T10:06:33;3.00;;;2.80;;
12076;SDS011;12420;42.676;23.262;2022-07-21T10:09:02;3.17;;;2.85;;
12076;SDS011;12420;42.676;23.262;2022-07-21T10:11:31;3.78;;;3.05;;
12076;SDS011;12420;42.676;23.262;2022-07-21T10:13:57;5.25;;;2.90;;
12076;SDS011;12420;42.676;23.262;2022-07-21T10:16:24;2.97;;;2.80;;
12076;SDS011;12420;42.676;23.262;2022-07-21T10:18:53;3.40;;;2.70;;
12076;SDS011;12420;42.676;23.262;2022-07-21T10:21:30;3.05;;;2.85;;
12076;SDS011;12420;42.676;23.262;2022-07-21T10:24:05;3.45;;;3.10;;
12076;SDS011;12420;42.676;23.262;2022-07-21T10:26:38;2.70;;;2.60;;
12076;SDS011;12420;42.676;23.262;2022-07-21T10:29:05;5.47;;;2.70;;
12076;SDS011;12420;42.676;23.262;2022-07-21T10:31:34;6.15;;;2.90;;
12076;SDS011;12420;42.676;23.262;2022-07-21T10:34:08;2.85;;;2.67;;
12076;SDS011;12420;42.676;23.262;2022-07-21T10:36:46;3.00;;;2.80;;
12076;SDS011;12420;42.676;23.262;2022-07-21T10:39:33;3.72;;;2.70;;
12076;SDS011;12420;42.676;23.262;2022-07-21T10:42:01;2.85;;;2.65;;
12076;SDS011;12420;42.676;23.262;2022-07-21T10:44:44;5.00;;;2.83;;
12076;SDS011;12420;42.676;23.262;2022-07-21T10:47:15;7.15;;;2.70;;
12076;SDS011;12420;42.676;23.262;2022-07-21T10:49:53;4.88;;;2.70;;
12076;SDS011;12420;42.676;23.262;2022-07-21T10:55:25;3.75;;;2.83;;
12076;SDS011;12420;42.676;23.262;2022-07-21T10:58:13;4.20;;;3.00;;
12076;SDS011;12420;42.676;23.262;2022-07-21T11:00:49;3.13;;;2.80;;
12076;SDS011;12420;42.676;23.262;2022-07-21T11:03:18;4.90;;;2.70;;
12076;SDS011;12420;42.676;23.262;2022-07-21T11:08:51;4.18;;;2.90;;
12076;SDS011;12420;42.676;23.262;2022-07-21T11:11:20;3.50;;;2.90;;
12076;SDS011;12420;42.676;23.262;2022-07-21T11:13:58;2.70;;;2.53;;
12076;SDS011;12420;42.676;23.262;2022-07-21T11:19:41;2.95;;;2.67;;
12076;SDS011;12420;42.676;23.262;2022-07-21T11:22:14;2.85;;;2.75;;
12076;SDS011;12420;42.676;23.262;2022-07-21T11:24:44;5.32;;;2.90;;
12076;SDS011;12420;42.676;23.262;2022-07-21T11:27:14;3.15;;;2.83;;
12076;SDS011;12420;42.676;23.262;2022-07-21T11:29:43;4.75;;;2.90;;
12076;SDS011;12420;42.676;23.262;2022-07-21T11:32:11;3.17;;;2.97;;
12076;SDS011;12420;42.676;23.262;2022-07-21T11:34:47;3.17;;;2.90;;
12076;SDS011;12420;42.676;23.262;2022-07-21T11:37:16;3.30;;;2.95;;
12076;SDS011;12420;42.676;23.262;2022-07-21T11:39:46;3.15;;;2.95;;
12076;SDS011;12420;42.676;23.262;2022-07-21T11:42:13;4.03;;;3.10;;
12076;SDS011;12420;42.676;23.262;2022-07-21T11:44:43;3.00;;;2.70;;
12076;SDS011;12420;42.676;23.262;2022-07-21T11:47:12;3.60;;;2.90;;
12076;SDS011;12420;42.676;23.262;2022-07-21T11:49:41;3.35;;;3.05;;
12076;SDS011;12420;42.676;23.262;2022-07-21T11:52:10;4.20;;;2.97;;
12076;SDS011;12420;42.676;23.262;2022-07-21T11:54:38;4.10;;;3.10;;
12076;SDS011;12420;42.676;23.262;2022-07-21T11:57:11;3.53;;;3.22;;
12076;SDS011;12420;42.676;23.262;2022-07-21T11:59:39;4.28;;;3.15;;
12076;SDS011;12420;42.676;23.262;2022-07-21T12:02:07;4.28;;;3.20;;
12076;SDS011;12420;42.676;23.262;2022-07-21T12:04:38;4.95;;;3.22;;
12076;SDS011;12420;42.676;23.262;2022-07-21T12:07:17;3.38;;;3.08;;
12076;SDS011;12420;42.676;23.262;2022-07-21T12:09:47;3.17;;;2.80;;
12076;SDS011;12420;42.676;23.262;2022-07-21T12:12:19;4.07;;;3.20;;
12076;SDS011;12420;42.676;23.262;2022-07-21T12:14:54;3.78;;;3.40;;
12076;SDS011;12420;42.676;23.262;2022-07-21T12:17:31;4.35;;;3.42;;
12076;SDS011;12420;42.676;23.262;2022-07-21T12:20:00;10.65;;;3.60;;
12076;SDS011;12420;42.676;23.262;2022-07-21T12:22:37;5.40;;;3.50;;
12076;SDS011;12420;42.676;23.262;2022-07-21T12:25:08;3.92;;;3.60;;
12076;SDS011;12420;42.676;23.262;2022-07-21T12:27:38;4.55;;;3.25;;
12076;SDS011;12420;42.676;23.262;2022-07-21T12:30:06;3.70;;;3.40;;
12076;SDS011;12420;42.676;23.262;2022-07-21T12:32:46;3.40;;;2.90;;
12076;SDS011;12420;42.676;23.262;2022-07-21T12:35:18;3.58;;;3.30;;
12076;SDS011;12420;42.676;23.262;2022-07-21T12:38:00;3.40;;;3.10;;
12076;SDS011;12420;42.676;23.262;2022-07-21T12:40:30;5.68;;;3.75;;
12076;SDS011;12420;42.676;23.262;2022-07-21T12:45:51;3.50;;;3.20;;
12076;SDS011;12420;42.676;23.262;2022-07-21T12:48:24;3.30;;;3.10;;
12076;SDS011;12420;42.676;23.262;2022-07-21T12:51:03;3.70;;;3.10;;
12076;SDS011;12420;42.676;23.262;2022-07-21T12:53:40;7.18;;;3.22;;
12076;SDS011;12420;42.676;23.262;2022-07-21T12:56:09;3.33;;;3.13;;
12076;SDS011;12420;42.676;23.262;2022-07-21T12:58:38;3.40;;;3.10;;
12076;SDS011;12420;42.676;23.262;2022-07-21T13:01:06;3.50;;;3.20;;
12076;SDS011;12420;42.676;23.262;2022-07-21T13:03:33;4.63;;;3.30;;
12076;SDS011;12420;42.676;23.262;2022-07-21T13:06:01;3.40;;;3.20;;
12076;SDS011;12420;42.676;23.262;2022-07-21T13:08:29;3.83;;;3.28;;
12076;SDS011;12420;42.676;23.262;2022-07-21T13:10:56;4.38;;;3.17;;
12076;SDS011;12420;42.676;23.262;2022-07-21T13:13:23;3.60;;;3.30;;
12076;SDS011;12420;42.676;23.262;2022-07-21T13:15:52;4.63;;;3.65;;
12076;SDS011;12420;42.676;23.262;2022-07-21T13:18:19;3.83;;;3.25;;
12076;SDS011;12420;42.676;23.262;2022-07-21T13:20:48;6.25;;;3.35;;
12076;SDS011;12420;42.676;23.262;2022-07-21T13:23:15;6.70;;;3.60;;
12076;SDS011;12420;42.676;23.262;2022-07-21T13:25:42;3.70;;;3.40;;
12076;SDS011;12420;42.676;23.262;2022-07-21T13:28:09;7.80;;;3.13;;
12076;SDS011;12420;42.676;23.262;2022-07-21T13:30:35;3.83;;;3.15;;
12076;SDS011;12420;42.676;23.262;2022-07-21T13:33:04;5.65;;;3.13;;
12076;SDS011;12420;42.676;23.262;2022-07-21T13:35:31;4.72;;;3.35;;
12076;SDS011;12420;42.676;23.262;2022-07-21T13:37:58;5.15;;;2.95;;
12076;SDS011;12420;42.676;23.262;2022-07-21T13:40:25;6.95;;;3.05;;
12076;SDS011;12420;42.676;23.262;2022-07-21T13:42:52;6.75;;;3.20;;
12076;SDS011;12420;42.676;23.262;2022-07-21T13:45:19;8.40;;;3.20;;
12076;SDS011;12420;42.676;23.262;2022-07-21T13:47:46;3.90;;;3.13;;
12076;SDS011;12420;42.676;23.262;2022-07-21T13:50:15;4.15;;;3.17;;
12076;SDS011;12420;42.676;23.262;2022-07-21T13:52:41;6.72;;;3.20;;
12076;SDS011;12420;42.676;23.262;2022-07-21T13:55:08;6.18;;;3.05;;
12076;SDS011;12420;42.676;23.262;2022-07-21T13:57:35;4.30;;;3.17;;
12076;SDS011;12420;42.676;23.262;2022-07-21T14:00:05;3.53;;;2.90;;
12076;SDS011;12420;42.676;23.262;2022-07-21T14:02:37;5.95;;;3.05;;
12076;SDS011;12420;42.676;23.262;2022-07-21T14:05:06;4.28;;;3.30;;
12076;SDS011;12420;42.676;23.262;2022-07-21T14:07:37;6.53;;;3.15;;
12076;SDS011;12420;42.676;23.262;2022-07-21T14:10:04;6.65;;;3.33;;
12076;SDS011;12420;42.676;23.262;2022-07-21T14:12:32;3.47;;;3.28;;
12076;SDS011;12420;42.676;23.262;2022-07-21T14:14:59;3.30;;;3.10;;
12076;SDS011;12420;42.676;23.262;2022-07-21T14:17:26;3.38;;;3.10;;
12076;SDS011;12420;42.676;23.262;2022-07-21T14:19:53;3.35;;;3.05;;
12076;SDS011;12420;42.676;23.262;2022-07-21T14:22:19;6.47;;;2.97;;
12076;SDS011;12420;42.676;23.262;2022-07-21T14:24:52;5.20;;;3.30;;
12076;SDS011;12420;42.676;23.262;2022-07-21T14:27:36;5.43;;;3.13;;
12076;SDS011;12420;42.676;23.262;2022-07-21T14:30:03;5.00;;;3.30;;
12076;SDS011;12420;42.676;23.262;2022-07-21T14:32:30;3.42;;;2.80;;
12076;SDS011;12420;42.676;23.262;2022-07-21T14:35:00;3.88;;;3.45;;
12076;SDS011;12420;42.676;23.262;2022-07-21T14:37:30;4.63;;;3.40;;
12076;SDS011;12420;42.676;23.262;2022-07-21T14:40:01;4.78;;;2.97;;
12076;SDS011;12420;42.676;23.262;2022-07-21T14:42:29;3.45;;;3.15;;
12076;SDS011;12420;42.676;23.262;2022-07-21T14:44:59;6.47;;;3.25;;
12076;SDS011;12420;42.676;23.262;2022-07-21T14:47:25;4.10;;;3.00;;
12076;SDS011;12420;42.676;23.262;2022-07-21T14:49:55;3.88;;;2.97;;
12076;SDS011;12420;42.676;23.262;2022-07-21T14:52:22;4.00;;;3.30;;
12076;SDS011;12420;42.676;23.262;2022-07-21T14:54:49;4.13;;;3.28;;